sensor_id;sensor_type;location;lat;lon;timestamp;P1;durP1;ratioP1;P2;durP2;ratioP2
75506;SDS011;64086;43.220;27.878;2023-07-22T00:01:16;13.90;;;12.25;;
75506;SDS011;64086;43.220;27.878;2023-07-22T00:03:42;16.55;;;12.32;;
75506;SDS011;64086;43.220;27.878;2023-07-22T00:06:08;22.30;;;13.10;;
75506;SDS011;64086;43.220;27.878;2023-07-22T00:08:35;14.50;;;11.95;;
75506;SDS011;64086;43.220;27.878;2023-07-22T00:11:04;12.93;;;11.70;;
75506;SDS011;64086;43.220;27.878;2023-07-22T00:13:31;12.60;;;11.30;;
75506;SDS011;64086;43.220;27.878;2023-07-22T00:15:57;13.38;;;11.98;;
75506;SDS011;64086;43.220;27.878;2023-07-22T00:18:24;13.48;;;12.07;;
75506;SDS011;64086;43.220;27.878;2023-07-22T00:20:52;14.63;;;13.02;;
75506;SDS011;64086;43.220;27.878;2023-07-22T00:23:17;17.73;;;12.43;;
75506;SDS011;64086;43.220;27.878;2023-07-22T00:25:43;13.70;;;12.27;;
75506;SDS011;64086;43.220;27.878;2023-07-22T00:28:08;14.45;;;13.07;;
75506;SDS011;64086;43.220;27.878;2023-07-22T00:30:33;17.23;;;12.80;;
75506;SDS011;64086;43.220;27.878;2023-07-22T00:33:00;14.95;;;12.85;;
75506;SDS011;64086;43.220;27.878;2023-07-22T00:35:26;14.52;;;12.38;;
75506;SDS011;64086;43.220;27.878;2023-07-22T00:37:51;13.20;;;12.00;;
75506;SDS011;64086;43.220;27.878;2023-07-22T00:40:16;13.35;;;12.05;;
75506;SDS011;64086;43.220;27.878;2023-07-22T00:42:43;13.25;;;11.90;;
75506;SDS011;64086;43.220;27.878;2023-07-22T00:45:08;18.65;;;13.23;;
75506;SDS011;64086;43.220;27.878;2023-07-22T00:47:34;21.58;;;14.35;;
75506;SDS011;64086;43.220;27.878;2023-07-22T00:50:01;14.95;;;13.40;;
75506;SDS011;64086;43.220;27.878;2023-07-22T00:52:27;17.15;;;14.10;;
75506;SDS011;64086;43.220;27.878;2023-07-22T00:54:53;16.05;;;14.07;;
75506;SDS011;64086;43.220;27.878;2023-07-22T00:57:20;21.35;;;14.95;;
75506;SDS011;64086;43.220;27.878;2023-07-22T00:59:45;19.45;;;15.77;;
75506;SDS011;64086;43.220;27.878;2023-07-22T01:02:11;18.70;;;16.70;;
75506;SDS011;64086;43.220;27.878;2023-07-22T01:04:36;21.35;;;19.40;;
75506;SDS011;64086;43.220;27.878;2023-07-22T01:07:03;19.83;;;17.38;;
75506;SDS011;64086;43.220;27.878;2023-07-22T01:09:38;23.08;;;20.90;;
75506;SDS011;64086;43.220;27.878;2023-07-22T01:12:05;37.42;;;33.63;;
75506;SDS011;64086;43.220;27.878;2023-07-22T01:14:34;41.22;;;36.95;;
75506;SDS011;64086;43.220;27.878;2023-07-22T01:17:03;54.45;;;49.13;;
75506;SDS011;64086;43.220;27.878;2023-07-22T01:19:30;31.25;;;28.48;;
75506;SDS011;64086;43.220;27.878;2023-07-22T01:21:57;44.17;;;39.83;;
75506;SDS011;64086;43.220;27.878;2023-07-22T01:24:23;39.67;;;35.72;;
75506;SDS011;64086;43.220;27.878;2023-07-22T01:26:48;18.25;;;16.45;;
75506;SDS011;64086;43.220;27.878;2023-07-22T01:29:14;14.25;;;12.45;;
75506;SDS011;64086;43.220;27.878;2023-07-22T01:31:40;13.73;;;12.32;;
75506;SDS011;64086;43.220;27.878;2023-07-22T01:34:06;13.73;;;12.32;;
75506;SDS011;64086;43.220;27.878;2023-07-22T01:36:31;16.65;;;13.73;;
75506;SDS011;64086;43.220;27.878;2023-07-22T01:38:57;13.68;;;12.32;;
75506;SDS011;64086;43.220;27.878;2023-07-22T01:41:22;14.98;;;13.38;;
75506;SDS011;64086;43.220;27.878;2023-07-22T01:43:48;14.13;;;12.70;;
75506;SDS011;64086;43.220;27.878;2023-07-22T01:46:14;14.50;;;12.90;;
75506;SDS011;64086;43.220;27.878;2023-07-22T01:48:39;18.90;;;13.43;;
75506;SDS011;64086;43.220;27.878;2023-07-22T01:51:05;18.75;;;13.77;;
75506;SDS011;64086;43.220;27.878;2023-07-22T01:53:30;20.48;;;14.18;;
75506;SDS011;64086;43.220;27.878;2023-07-22T01:55:57;15.25;;;13.68;;
75506;SDS011;64086;43.220;27.878;2023-07-22T01:58:22;14.88;;;13.35;;
75506;SDS011;64086;43.220;27.878;2023-07-22T02:00:50;16.08;;;13.63;;
75506;SDS011;64086;43.220;27.878;2023-07-22T02:03:16;18.30;;;14.55;;
75506;SDS011;64086;43.220;27.878;2023-07-22T02:05:41;16.40;;;13.93;;
75506;SDS011;64086;43.220;27.878;2023-07-22T02:08:07;15.90;;;13.13;;
75506;SDS011;64086;43.220;27.878;2023-07-22T02:10:32;17.35;;;14.32;;
75506;SDS011;64086;43.220;27.878;2023-07-22T02:12:57;19.63;;;14.07;;
75506;SDS011;64086;43.220;27.878;2023-07-22T02:15:23;17.02;;;14.00;;
75506;SDS011;64086;43.220;27.878;2023-07-22T02:17:49;16.95;;;13.27;;
75506;SDS011;64086;43.220;27.878;2023-07-22T02:20:15;15.63;;;13.85;;
75506;SDS011;64086;43.220;27.878;2023-07-22T02:22:40;19.63;;;13.70;;
75506;SDS011;64086;43.220;27.878;2023-07-22T02:25:06;14.07;;;12.52;;
75506;SDS011;64086;43.220;27.878;2023-07-22T02:27:32;14.48;;;12.00;;
75506;SDS011;64086;43.220;27.878;2023-07-22T02:29:57;15.13;;;12.60;;
75506;SDS011;64086;43.220;27.878;2023-07-22T02:32:23;14.80;;;12.93;;
75506;SDS011;64086;43.220;27.878;2023-07-22T02:34:48;14.40;;;12.90;;
75506;SDS011;64086;43.220;27.878;2023-07-22T02:37:14;16.88;;;12.88;;
75506;SDS011;64086;43.220;27.878;2023-07-22T02:39:39;18.02;;;12.73;;
75506;SDS011;64086;43.220;27.878;2023-07-22T02:42:05;14.30;;;12.85;;
75506;SDS011;64086;43.220;27.878;2023-07-22T02:44:30;16.25;;;14.32;;
75506;SDS011;64086;43.220;27.878;2023-07-22T02:46:56;14.63;;;13.15;;
75506;SDS011;64086;43.220;27.878;2023-07-22T02:49:21;14.68;;;13.15;;
75506;SDS011;64086;43.220;27.878;2023-07-22T02:51:47;18.48;;;13.15;;
75506;SDS011;64086;43.220;27.878;2023-07-22T02:54:13;17.42;;;13.80;;
75506;SDS011;64086;43.220;27.878;2023-07-22T02:56:38;17.40;;;14.77;;
75506;SDS011;64086;43.220;27.878;2023-07-22T02:59:04;14.68;;;12.45;;
75506;SDS011;64086;43.220;27.878;2023-07-22T03:01:29;16.20;;;13.15;;
75506;SDS011;64086;43.220;27.878;2023-07-22T03:03:55;13.70;;;12.50;;
75506;SDS011;64086;43.220;27.878;2023-07-22T03:06:20;14.77;;;13.05;;
75506;SDS011;64086;43.220;27.878;2023-07-22T03:08:46;15.25;;;12.80;;
75506;SDS011;64086;43.220;27.878;2023-07-22T03:11:13;12.90;;;11.70;;
75506;SDS011;64086;43.220;27.878;2023-07-22T03:13:39;13.05;;;11.88;;
75506;SDS011;64086;43.220;27.878;2023-07-22T03:16:04;13.07;;;11.77;;
75506;SDS011;64086;43.220;27.878;2023-07-22T03:18:30;13.25;;;11.80;;
75506;SDS011;64086;43.220;27.878;2023-07-22T03:20:56;13.45;;;12.07;;
75506;SDS011;64086;43.220;27.878;2023-07-22T03:23:22;14.85;;;11.43;;
75506;SDS011;64086;43.220;27.878;2023-07-22T03:25:48;13.27;;;11.95;;
75506;SDS011;64086;43.220;27.878;2023-07-22T03:28:13;14.25;;;12.85;;
75506;SDS011;64086;43.220;27.878;2023-07-22T03:30:39;14.13;;;12.45;;
75506;SDS011;64086;43.220;27.878;2023-07-22T03:33:04;14.07;;;11.88;;
75506;SDS011;64086;43.220;27.878;2023-07-22T03:35:30;13.50;;;12.15;;
75506;SDS011;64086;43.220;27.878;2023-07-22T03:37:56;12.50;;;11.40;;
75506;SDS011;64086;43.220;27.878;2023-07-22T03:40:22;12.60;;;11.07;;
75506;SDS011;64086;43.220;27.878;2023-07-22T03:45:23;13.40;;;12.00;;
75506;SDS011;64086;43.220;27.878;2023-07-22T03:47:58;13.30;;;11.88;;
75506;SDS011;64086;43.220;27.878;2023-07-22T03:50:24;12.65;;;10.95;;
75506;SDS011;64086;43.220;27.878;2023-07-22T03:52:50;12.52;;;11.23;;
75506;SDS011;64086;43.220;27.878;2023-07-22T03:55:16;12.02;;;10.73;;
75506;SDS011;64086;43.220;27.878;2023-07-22T03:57:41;11.05;;;10.00;;
75506;SDS011;64086;43.220;27.878;2023-07-22T04:00:07;11.73;;;10.63;;
75506;SDS011;64086;43.220;27.878;2023-07-22T04:02:35;11.57;;;10.38;;
75506;SDS011;64086;43.220;27.878;2023-07-22T04:05:01;17.33;;;11.27;;
75506;SDS011;64086;43.220;27.878;2023-07-22T04:07:27;18.98;;;11.18;;
75506;SDS011;64086;43.220;27.878;2023-07-22T04:09:52;14.48;;;11.25;;
75506;SDS011;64086;43.220;27.878;2023-07-22T04:12:18;10.85;;;9.75;;
75506;SDS011;64086;43.220;27.878;2023-07-22T04:14:43;10.82;;;9.73;;
75506;SDS011;64086;43.220;27.878;2023-07-22T04:17:09;12.23;;;10.80;;
75506;SDS011;64086;43.220;27.878;2023-07-22T04:19:34;11.40;;;10.23;;
75506;SDS011;64086;43.220;27.878;2023-07-22T04:22:00;12.07;;;10.13;;
75506;SDS011;64086;43.220;27.878;2023-07-22T04:24:29;11.38;;;9.55;;
75506;SDS011;64086;43.220;27.878;2023-07-22T04:26:56;11.18;;;9.80;;
75506;SDS011;64086;43.220;27.878;2023-07-22T04:29:22;10.35;;;9.43;;
75506;SDS011;64086;43.220;27.878;2023-07-22T04:31:47;11.48;;;10.18;;
75506;SDS011;64086;43.220;27.878;2023-07-22T04:34:12;13.77;;;10.27;;
75506;SDS011;64086;43.220;27.878;2023-07-22T04:36:38;11.32;;;9.10;;
75506;SDS011;64086;43.220;27.878;2023-07-22T04:39:04;10.85;;;8.50;;
75506;SDS011;64086;43.220;27.878;2023-07-22T04:41:31;10.63;;;9.45;;
75506;SDS011;64086;43.220;27.878;2023-07-22T04:43:57;10.30;;;9.50;;
75506;SDS011;64086;43.220;27.878;2023-07-22T04:46:23;8.90;;;8.20;;
75506;SDS011;64086;43.220;27.878;2023-07-22T04:48:50;10.07;;;8.73;;
75506;SDS011;64086;43.220;27.878;2023-07-22T04:51:16;9.48;;;8.65;;
75506;SDS011;64086;43.220;27.878;2023-07-22T04:53:41;8.63;;;7.78;;
75506;SDS011;64086;43.220;27.878;2023-07-22T04:56:07;8.73;;;8.00;;
75506;SDS011;64086;43.220;27.878;2023-07-22T04:58:32;9.60;;;8.70;;
75506;SDS011;64086;43.220;27.878;2023-07-22T05:00:58;9.07;;;8.27;;
75506;SDS011;64086;43.220;27.878;2023-07-22T05:03:23;13.75;;;9.63;;
75506;SDS011;64086;43.220;27.878;2023-07-22T05:05:51;9.80;;;8.80;;
75506;SDS011;64086;43.220;27.878;2023-07-22T05:08:17;9.32;;;8.43;;
75506;SDS011;64086;43.220;27.878;2023-07-22T05:10:42;9.48;;;8.57;;
75506;SDS011;64086;43.220;27.878;2023-07-22T05:13:07;9.32;;;8.18;;
75506;SDS011;64086;43.220;27.878;2023-07-22T05:15:33;9.02;;;8.13;;
75506;SDS011;64086;43.220;27.878;2023-07-22T05:17:58;8.70;;;7.78;;
75506;SDS011;64086;43.220;27.878;2023-07-22T05:20:24;8.93;;;8.13;;
75506;SDS011;64086;43.220;27.878;2023-07-22T05:22:49;8.50;;;7.90;;
75506;SDS011;64086;43.220;27.878;2023-07-22T05:25:15;9.20;;;8.40;;
75506;SDS011;64086;43.220;27.878;2023-07-22T05:27:40;9.43;;;8.15;;
75506;SDS011;64086;43.220;27.878;2023-07-22T05:30:06;9.55;;;8.65;;
75506;SDS011;64086;43.220;27.878;2023-07-22T05:32:32;10.30;;;8.65;;
75506;SDS011;64086;43.220;27.878;2023-07-22T05:34:57;9.63;;;8.73;;
75506;SDS011;64086;43.220;27.878;2023-07-22T05:37:23;9.00;;;8.20;;
75506;SDS011;64086;43.220;27.878;2023-07-22T05:39:49;10.25;;;8.55;;
75506;SDS011;64086;43.220;27.878;2023-07-22T05:42:14;9.25;;;8.45;;
75506;SDS011;64086;43.220;27.878;2023-07-22T05:44:39;10.52;;;9.27;;
75506;SDS011;64086;43.220;27.878;2023-07-22T05:47:05;10.20;;;8.27;;
75506;SDS011;64086;43.220;27.878;2023-07-22T05:49:31;9.07;;;8.27;;
75506;SDS011;64086;43.220;27.878;2023-07-22T05:51:56;10.15;;;9.18;;
75506;SDS011;64086;43.220;27.878;2023-07-22T05:54:22;10.02;;;8.82;;
75506;SDS011;64086;43.220;27.878;2023-07-22T05:56:47;10.18;;;9.07;;
75506;SDS011;64086;43.220;27.878;2023-07-22T05:59:13;9.82;;;8.90;;
75506;SDS011;64086;43.220;27.878;2023-07-22T06:01:38;9.25;;;8.55;;
75506;SDS011;64086;43.220;27.878;2023-07-22T06:04:04;9.30;;;8.50;;
75506;SDS011;64086;43.220;27.878;2023-07-22T06:06:30;10.65;;;9.70;;
75506;SDS011;64086;43.220;27.878;2023-07-22T06:08:55;10.07;;;9.07;;
75506;SDS011;64086;43.220;27.878;2023-07-22T06:11:21;10.07;;;8.98;;
75506;SDS011;64086;43.220;27.878;2023-07-22T06:13:46;9.43;;;8.60;;
75506;SDS011;64086;43.220;27.878;2023-07-22T06:16:12;9.65;;;8.77;;
75506;SDS011;64086;43.220;27.878;2023-07-22T06:18:37;9.30;;;8.57;;
75506;SDS011;64086;43.220;27.878;2023-07-22T06:21:03;9.95;;;8.98;;
75506;SDS011;64086;43.220;27.878;2023-07-22T06:23:29;9.70;;;8.90;;
75506;SDS011;64086;43.220;27.878;2023-07-22T06:25:55;10.73;;;9.18;;
75506;SDS011;64086;43.220;27.878;2023-07-22T06:28:20;10.15;;;9.13;;
75506;SDS011;64086;43.220;27.878;2023-07-22T06:30:46;11.00;;;10.10;;
75506;SDS011;64086;43.220;27.878;2023-07-22T06:33:11;9.60;;;8.70;;
75506;SDS011;64086;43.220;27.878;2023-07-22T06:35:37;11.10;;;9.95;;
75506;SDS011;64086;43.220;27.878;2023-07-22T06:38:02;11.05;;;9.98;;
75506;SDS011;64086;43.220;27.878;2023-07-22T06:40:28;10.15;;;9.20;;
75506;SDS011;64086;43.220;27.878;2023-07-22T06:42:53;10.15;;;9.35;;
75506;SDS011;64086;43.220;27.878;2023-07-22T06:45:19;9.40;;;8.70;;
75506;SDS011;64086;43.220;27.878;2023-07-22T06:47:44;11.02;;;9.88;;
75506;SDS011;64086;43.220;27.878;2023-07-22T06:50:10;9.73;;;8.95;;
75506;SDS011;64086;43.220;27.878;2023-07-22T06:52:35;10.10;;;9.30;;
75506;SDS011;64086;43.220;27.878;2023-07-22T06:55:01;10.45;;;9.52;;
75506;SDS011;64086;43.220;27.878;2023-07-22T06:57:26;10.43;;;9.57;;
75506;SDS011;64086;43.220;27.878;2023-07-22T06:59:55;10.20;;;9.40;;
75506;SDS011;64086;43.220;27.878;2023-07-22T07:02:20;11.25;;;9.63;;
75506;SDS011;64086;43.220;27.878;2023-07-22T07:04:46;10.05;;;8.82;;
75506;SDS011;64086;43.220;27.878;2023-07-22T07:07:13;9.52;;;8.82;;
75506;SDS011;64086;43.220;27.878;2023-07-22T07:09:38;9.10;;;8.40;;
75506;SDS011;64086;43.220;27.878;2023-07-22T07:12:05;8.73;;;8.13;;
75506;SDS011;64086;43.220;27.878;2023-07-22T07:14:32;9.23;;;8.50;;
75506;SDS011;64086;43.220;27.878;2023-07-22T07:16:58;9.43;;;8.80;;
75506;SDS011;64086;43.220;27.878;2023-07-22T07:19:23;9.73;;;8.82;;
75506;SDS011;64086;43.220;27.878;2023-07-22T07:21:48;9.40;;;8.65;;
75506;SDS011;64086;43.220;27.878;2023-07-22T07:24:14;9.82;;;9.00;;
75506;SDS011;64086;43.220;27.878;2023-07-22T07:26:40;8.82;;;8.23;;
75506;SDS011;64086;43.220;27.878;2023-07-22T07:29:05;9.32;;;8.63;;
75506;SDS011;64086;43.220;27.878;2023-07-22T07:31:31;9.07;;;8.38;;
75506;SDS011;64086;43.220;27.878;2023-07-22T07:33:56;9.93;;;9.13;;
75506;SDS011;64086;43.220;27.878;2023-07-22T07:36:22;9.25;;;8.20;;
75506;SDS011;64086;43.220;27.878;2023-07-22T07:38:48;9.07;;;8.45;;
75506;SDS011;64086;43.220;27.878;2023-07-22T07:41:13;8.88;;;8.18;;
75506;SDS011;64086;43.220;27.878;2023-07-22T07:43:40;9.02;;;8.43;;
75506;SDS011;64086;43.220;27.878;2023-07-22T07:48:47;9.20;;;8.60;;
75506;SDS011;64086;43.220;27.878;2023-07-22T07:51:18;9.75;;;9.05;;
75506;SDS011;64086;43.220;27.878;2023-07-22T07:53:45;9.00;;;8.40;;
75506;SDS011;64086;43.220;27.878;2023-07-22T07:56:12;9.43;;;8.63;;
75506;SDS011;64086;43.220;27.878;2023-07-22T07:58:37;9.32;;;8.73;;
75506;SDS011;64086;43.220;27.878;2023-07-22T08:01:03;9.90;;;9.10;;
75506;SDS011;64086;43.220;27.878;2023-07-22T08:03:29;9.63;;;9.00;;
75506;SDS011;64086;43.220;27.878;2023-07-22T08:05:55;9.00;;;8.40;;
75506;SDS011;64086;43.220;27.878;2023-07-22T08:08:21;9.40;;;8.77;;
75506;SDS011;64086;43.220;27.878;2023-07-22T08:10:47;10.20;;;9.27;;
75506;SDS011;64086;43.220;27.878;2023-07-22T08:15:59;11.05;;;10.00;;
75506;SDS011;64086;43.220;27.878;2023-07-22T08:18:25;10.45;;;9.82;;
75506;SDS011;64086;43.220;27.878;2023-07-22T08:20:54;10.98;;;10.07;;
75506;SDS011;64086;43.220;27.878;2023-07-22T08:23:20;10.43;;;9.52;;
75506;SDS011;64086;43.220;27.878;2023-07-22T08:25:46;11.40;;;10.10;;
75506;SDS011;64086;43.220;27.878;2023-07-22T08:28:12;10.95;;;9.95;;
75506;SDS011;64086;43.220;27.878;2023-07-22T08:30:37;10.52;;;9.77;;
75506;SDS011;64086;43.220;27.878;2023-07-22T08:33:05;11.55;;;10.57;;
75506;SDS011;64086;43.220;27.878;2023-07-22T08:35:30;11.43;;;10.52;;
75506;SDS011;64086;43.220;27.878;2023-07-22T08:37:56;11.30;;;10.30;;
75506;SDS011;64086;43.220;27.878;2023-07-22T08:40:21;10.88;;;10.00;;
75506;SDS011;64086;43.220;27.878;2023-07-22T08:42:47;10.35;;;9.45;;
75506;SDS011;64086;43.220;27.878;2023-07-22T08:45:15;9.77;;;8.95;;
75506;SDS011;64086;43.220;27.878;2023-07-22T08:47:45;10.40;;;9.60;;
75506;SDS011;64086;43.220;27.878;2023-07-22T08:50:12;10.10;;;9.40;;
75506;SDS011;64086;43.220;27.878;2023-07-22T08:52:40;9.63;;;8.93;;
75506;SDS011;64086;43.220;27.878;2023-07-22T08:55:06;9.52;;;8.82;;
75506;SDS011;64086;43.220;27.878;2023-07-22T08:57:32;10.38;;;9.68;;
75506;SDS011;64086;43.220;27.878;2023-07-22T08:59:57;9.43;;;8.52;;
75506;SDS011;64086;43.220;27.878;2023-07-22T09:02:24;10.07;;;9.18;;
75506;SDS011;64086;43.220;27.878;2023-07-22T09:04:49;9.00;;;8.38;;
75506;SDS011;64086;43.220;27.878;2023-07-22T09:07:15;9.07;;;8.27;;
75506;SDS011;64086;43.220;27.878;2023-07-22T09:09:41;10.18;;;8.65;;
75506;SDS011;64086;43.220;27.878;2023-07-22T09:12:08;9.18;;;8.48;;
75506;SDS011;64086;43.220;27.878;2023-07-22T09:14:33;9.00;;;8.07;;
75506;SDS011;64086;43.220;27.878;2023-07-22T09:16:59;8.48;;;7.72;;
75506;SDS011;64086;43.220;27.878;2023-07-22T09:19:24;9.07;;;8.18;;
75506;SDS011;64086;43.220;27.878;2023-07-22T09:21:50;9.35;;;8.57;;
75506;SDS011;64086;43.220;27.878;2023-07-22T09:24:19;9.40;;;8.45;;
75506;SDS011;64086;43.220;27.878;2023-07-22T09:26:46;8.77;;;7.97;;
75506;SDS011;64086;43.220;27.878;2023-07-22T09:29:12;9.32;;;8.50;;
75506;SDS011;64086;43.220;27.878;2023-07-22T09:31:47;9.57;;;8.57;;
75506;SDS011;64086;43.220;27.878;2023-07-22T09:34:14;9.27;;;8.48;;
75506;SDS011;64086;43.220;27.878;2023-07-22T09:36:50;9.93;;;8.98;;
75506;SDS011;64086;43.220;27.878;2023-07-22T09:39:16;9.30;;;8.48;;
75506;SDS011;64086;43.220;27.878;2023-07-22T09:41:41;9.07;;;8.13;;
75506;SDS011;64086;43.220;27.878;2023-07-22T09:44:09;9.10;;;8.30;;
75506;SDS011;64086;43.220;27.878;2023-07-22T09:46:35;9.32;;;8.40;;
75506;SDS011;64086;43.220;27.878;2023-07-22T09:49:04;9.13;;;8.43;;
75506;SDS011;64086;43.220;27.878;2023-07-22T09:51:38;9.07;;;8.23;;
75506;SDS011;64086;43.220;27.878;2023-07-22T09:54:05;8.95;;;8.10;;
75506;SDS011;64086;43.220;27.878;2023-07-22T09:56:31;9.02;;;8.13;;
75506;SDS011;64086;43.220;27.878;2023-07-22T09:58:58;9.38;;;8.68;;
75506;SDS011;64086;43.220;27.878;2023-07-22T10:01:24;9.27;;;8.57;;
75506;SDS011;64086;43.220;27.878;2023-07-22T10:03:52;9.35;;;8.50;;
75506;SDS011;64086;43.220;27.878;2023-07-22T10:06:26;9.43;;;8.50;;
75506;SDS011;64086;43.220;27.878;2023-07-22T10:08:54;9.18;;;8.38;;
75506;SDS011;64086;43.220;27.878;2023-07-22T10:11:21;9.27;;;8.40;;
75506;SDS011;64086;43.220;27.878;2023-07-22T10:13:48;8.88;;;8.18;;
75506;SDS011;64086;43.220;27.878;2023-07-22T10:16:13;9.35;;;8.57;;
75506;SDS011;64086;43.220;27.878;2023-07-22T10:18:40;10.15;;;8.20;;
75506;SDS011;64086;43.220;27.878;2023-07-22T10:21:08;8.68;;;7.85;;
75506;SDS011;64086;43.220;27.878;2023-07-22T10:23:33;10.18;;;8.80;;
75506;SDS011;64086;43.220;27.878;2023-07-22T10:26:00;9.05;;;8.25;;
75506;SDS011;64086;43.220;27.878;2023-07-22T10:28:27;9.85;;;8.82;;
75506;SDS011;64086;43.220;27.878;2023-07-22T10:30:53;9.52;;;8.70;;
75506;SDS011;64086;43.220;27.878;2023-07-22T10:33:19;9.65;;;8.85;;
75506;SDS011;64086;43.220;27.878;2023-07-22T10:36:01;9.40;;;8.52;;
75506;SDS011;64086;43.220;27.878;2023-07-22T10:38:30;9.15;;;8.35;;
75506;SDS011;64086;43.220;27.878;2023-07-22T10:40:56;9.52;;;8.65;;
75506;SDS011;64086;43.220;27.878;2023-07-22T10:43:25;9.68;;;8.77;;
75506;SDS011;64086;43.220;27.878;2023-07-22T10:45:54;9.07;;;8.13;;
75506;SDS011;64086;43.220;27.878;2023-07-22T10:48:28;11.50;;;8.88;;
75506;SDS011;64086;43.220;27.878;2023-07-22T10:51:07;9.75;;;8.80;;
75506;SDS011;64086;43.220;27.878;2023-07-22T10:53:38;9.10;;;8.25;;
75506;SDS011;64086;43.220;27.878;2023-07-22T11:04:09;9.38;;;8.55;;
75506;SDS011;64086;43.220;27.878;2023-07-22T11:11:56;9.57;;;8.75;;
75506;SDS011;64086;43.220;27.878;2023-07-22T11:15:05;9.35;;;8.48;;
75506;SDS011;64086;43.220;27.878;2023-07-22T11:17:12;9.57;;;8.57;;
75506;SDS011;64086;43.220;27.878;2023-07-22T11:19:37;9.40;;;8.40;;
75506;SDS011;64086;43.220;27.878;2023-07-22T11:22:04;10.25;;;8.13;;
75506;SDS011;64086;43.220;27.878;2023-07-22T11:24:31;8.98;;;8.20;;
75506;SDS011;64086;43.220;27.878;2023-07-22T11:26:57;8.82;;;7.97;;
75506;SDS011;64086;43.220;27.878;2023-07-22T11:29:23;9.32;;;8.27;;
75506;SDS011;64086;43.220;27.878;2023-07-22T11:31:49;9.10;;;8.18;;
75506;SDS011;64086;43.220;27.878;2023-07-22T11:34:16;10.15;;;8.18;;
75506;SDS011;64086;43.220;27.878;2023-07-22T11:36:43;9.57;;;8.68;;
75506;SDS011;64086;43.220;27.878;2023-07-22T11:39:12;11.48;;;8.45;;
75506;SDS011;64086;43.220;27.878;2023-07-22T11:41:42;8.88;;;7.93;;
75506;SDS011;64086;43.220;27.878;2023-07-22T11:44:09;8.93;;;8.05;;
75506;SDS011;64086;43.220;27.878;2023-07-22T11:49:22;9.40;;;8.55;;
75506;SDS011;64086;43.220;27.878;2023-07-22T11:51:49;9.55;;;8.50;;
75506;SDS011;64086;43.220;27.878;2023-07-22T11:54:14;8.38;;;7.63;;
75506;SDS011;64086;43.220;27.878;2023-07-22T11:56:42;9.25;;;8.10;;
75506;SDS011;64086;43.220;27.878;2023-07-22T11:59:08;9.18;;;8.23;;
75506;SDS011;64086;43.220;27.878;2023-07-22T12:01:33;10.63;;;9.13;;
75506;SDS011;64086;43.220;27.878;2023-07-22T12:03:59;9.63;;;8.63;;
75506;SDS011;64086;43.220;27.878;2023-07-22T12:06:27;8.88;;;8.00;;
75506;SDS011;64086;43.220;27.878;2023-07-22T12:08:53;8.55;;;7.85;;
75506;SDS011;64086;43.220;27.878;2023-07-22T12:11:22;9.18;;;8.30;;
75506;SDS011;64086;43.220;27.878;2023-07-22T12:16:34;9.63;;;8.65;;
75506;SDS011;64086;43.220;27.878;2023-07-22T12:19:01;9.68;;;8.65;;
75506;SDS011;64086;43.220;27.878;2023-07-22T12:21:27;9.18;;;8.25;;
75506;SDS011;64086;43.220;27.878;2023-07-22T12:23:52;10.70;;;8.73;;
75506;SDS011;64086;43.220;27.878;2023-07-22T12:26:18;8.50;;;7.72;;
75506;SDS011;64086;43.220;27.878;2023-07-22T12:28:43;10.18;;;9.18;;
75506;SDS011;64086;43.220;27.878;2023-07-22T12:31:09;8.80;;;7.97;;
75506;SDS011;64086;43.220;27.878;2023-07-22T12:33:34;9.43;;;8.45;;
75506;SDS011;64086;43.220;27.878;2023-07-22T12:36:00;9.02;;;8.10;;
75506;SDS011;64086;43.220;27.878;2023-07-22T12:38:25;9.55;;;8.23;;
75506;SDS011;64086;43.220;27.878;2023-07-22T12:40:51;9.38;;;8.57;;
75506;SDS011;64086;43.220;27.878;2023-07-22T12:43:16;9.15;;;8.35;;
75506;SDS011;64086;43.220;27.878;2023-07-22T12:45:42;9.60;;;8.82;;
75506;SDS011;64086;43.220;27.878;2023-07-22T12:48:07;9.70;;;8.73;;
75506;SDS011;64086;43.220;27.878;2023-07-22T12:50:34;9.32;;;8.40;;
75506;SDS011;64086;43.220;27.878;2023-07-22T12:52:59;9.57;;;8.55;;
75506;SDS011;64086;43.220;27.878;2023-07-22T12:55:25;8.90;;;8.00;;
75506;SDS011;64086;43.220;27.878;2023-07-22T12:57:51;10.02;;;7.95;;
75506;SDS011;64086;43.220;27.878;2023-07-22T13:00:16;9.48;;;8.43;;
75506;SDS011;64086;43.220;27.878;2023-07-22T13:02:42;10.40;;;9.40;;
75506;SDS011;64086;43.220;27.878;2023-07-22T13:05:07;9.93;;;8.93;;
75506;SDS011;64086;43.220;27.878;2023-07-22T13:07:33;10.05;;;8.75;;
75506;SDS011;64086;43.220;27.878;2023-07-22T13:09:59;10.25;;;9.27;;
75506;SDS011;64086;43.220;27.878;2023-07-22T13:12:31;8.63;;;7.82;;
75506;SDS011;64086;43.220;27.878;2023-07-22T13:14:57;11.18;;;8.82;;
75506;SDS011;64086;43.220;27.878;2023-07-22T13:17:22;10.52;;;8.80;;
75506;SDS011;64086;43.220;27.878;2023-07-22T13:19:48;9.65;;;8.10;;
75506;SDS011;64086;43.220;27.878;2023-07-22T13:22:13;9.23;;;8.13;;
75506;SDS011;64086;43.220;27.878;2023-07-22T13:24:39;9.40;;;8.15;;
75506;SDS011;64086;43.220;27.878;2023-07-22T13:27:04;8.88;;;7.95;;
75506;SDS011;64086;43.220;27.878;2023-07-22T13:29:30;11.23;;;9.05;;
75506;SDS011;64086;43.220;27.878;2023-07-22T13:31:55;8.80;;;7.70;;
75506;SDS011;64086;43.220;27.878;2023-07-22T13:34:21;8.90;;;8.20;;
75506;SDS011;64086;43.220;27.878;2023-07-22T13:36:47;8.85;;;7.97;;
75506;SDS011;64086;43.220;27.878;2023-07-22T13:39:12;9.00;;;7.78;;
75506;SDS011;64086;43.220;27.878;2023-07-22T13:41:37;8.77;;;7.85;;
75506;SDS011;64086;43.220;27.878;2023-07-22T13:44:03;8.30;;;7.55;;
75506;SDS011;64086;43.220;27.878;2023-07-22T13:46:29;8.73;;;7.85;;
75506;SDS011;64086;43.220;27.878;2023-07-22T13:48:54;9.70;;;8.02;;
75506;SDS011;64086;43.220;27.878;2023-07-22T13:51:20;9.05;;;8.15;;
75506;SDS011;64086;43.220;27.878;2023-07-22T13:53:45;10.07;;;7.57;;
75506;SDS011;64086;43.220;27.878;2023-07-22T13:56:11;8.05;;;7.28;;
75506;SDS011;64086;43.220;27.878;2023-07-22T13:58:36;9.48;;;8.05;;
75506;SDS011;64086;43.220;27.878;2023-07-22T14:01:01;7.93;;;7.20;;
75506;SDS011;64086;43.220;27.878;2023-07-22T14:03:27;8.23;;;7.43;;
75506;SDS011;64086;43.220;27.878;2023-07-22T14:05:53;8.75;;;7.78;;
75506;SDS011;64086;43.220;27.878;2023-07-22T14:08:18;9.52;;;8.60;;
75506;SDS011;64086;43.220;27.878;2023-07-22T14:10:44;8.95;;;8.07;;
75506;SDS011;64086;43.220;27.878;2023-07-22T14:13:09;11.88;;;7.40;;
75506;SDS011;64086;43.220;27.878;2023-07-22T14:15:35;9.07;;;8.10;;
75506;SDS011;64086;43.220;27.878;2023-07-22T14:18:01;8.38;;;7.63;;
75506;SDS011;64086;43.220;27.878;2023-07-22T14:20:26;8.45;;;7.65;;
75506;SDS011;64086;43.220;27.878;2023-07-22T14:22:53;8.23;;;7.32;;
75506;SDS011;64086;43.220;27.878;2023-07-22T14:25:18;8.10;;;7.30;;
75506;SDS011;64086;43.220;27.878;2023-07-22T14:27:44;8.00;;;7.30;;
75506;SDS011;64086;43.220;27.878;2023-07-22T14:30:09;8.32;;;7.15;;
75506;SDS011;64086;43.220;27.878;2023-07-22T14:32:35;8.48;;;7.55;;
75506;SDS011;64086;43.220;27.878;2023-07-22T14:35:01;8.10;;;7.40;;
75506;SDS011;64086;43.220;27.878;2023-07-22T14:37:26;10.60;;;7.22;;
75506;SDS011;64086;43.220;27.878;2023-07-22T14:39:52;7.38;;;6.70;;
75506;SDS011;64086;43.220;27.878;2023-07-22T14:42:18;7.85;;;7.07;;
75506;SDS011;64086;43.220;27.878;2023-07-22T14:44:43;9.63;;;7.57;;